Terminal Aerodrome Forecast
Issued by NWS

Home | Current Version | Previous Version | Text Only | Print | Product List | Glossary On
Versions: 1 2 3 4 5 6 7 8 9 10 11 12 13 14 15 16 17 18 19 20
000
FTUS43 KJKL 301100
TAFSME
TAF
KSME 301125Z 3012/0112 00000KT 1/4SM FG VV001
     FM301330 00000KT 4SM BR BKN005
     FM301500 VRB03KT P6SM SKC
     FM010500 00000KT 3SM BR SKC
     FM010700 00000KT 1/4SM FG VV002=

USA.gov is the U.S. government's official web portal to all federal, state and local government web resources and services.